Time;durP1;ratioP1;P1;durP2;ratioP2;P2;SDS_P1;SDS_P2;PMS_P1;PMS_P2;Temp;Humidity;BMP_temperature;BMP_pressure;BME280_temperature;BME280_humidity;BME280_pressure;Samples;Min_cycle;Max_cycle;Signal;HPM_P1;HPM_P2
2023/05/11 00:01:05;;;;;;;36.00;24.95;;;;;;;11.39;100.00;101424.13;4976193;28;20033;-84
2023/05/11 00:03:31;;;;;;;32.25;23.75;;;;;;;11.37;100.00;101420.78;4959271;28;20053;-83
2023/05/11 00:05:57;;;;;;;35.42;25.05;;;;;;;11.21;100.00;101396.75;4976000;28;20467;-81
2023/05/11 00:08:22;;;;;;;34.22;24.65;;;;;;;11.35;100.00;101416.63;4975930;28;20052;-82
2023/05/11 00:10:48;;;;;;;34.97;25.17;;;;;;;11.34;100.00;101414.97;4976055;28;20062;-85
2023/05/11 00:13:13;;;;;;;34.25;25.10;;;;;;;11.30;100.00;101413.47;4975957;28;20038;-86
2023/05/11 00:15:39;;;;;;;36.78;25.38;;;;;;;11.28;100.00;101408.38;4975925;28;20027;-86
2023/05/11 00:18:04;;;;;;;37.63;25.95;;;;;;;11.10;100.00;101380.97;4975738;28;20037;-75
2023/05/11 00:20:29;;;;;;;37.97;25.80;;;;;;;11.25;100.00;101407.72;4975785;28;20140;-85
2023/05/11 00:22:55;;;;;;;35.38;24.23;;;;;;;11.16;100.00;101407.31;4975674;28;20023;-85
2023/05/11 00:25:20;;;;;;;34.45;25.30;;;;;;;11.13;100.00;101406.69;4975758;28;20033;-84
2023/05/11 00:27:45;;;;;;;35.55;24.98;;;;;;;10.87;100.00;101384.84;4975782;28;20031;-82
2023/05/11 00:30:13;;;;;;;35.50;24.65;;;;;;;10.95;100.00;101402.53;4975465;28;20061;-85
2023/05/11 00:32:39;;;;;;;31.98;23.75;;;;;;;10.81;100.00;101398.09;4975680;28;20042;-83
2023/05/11 00:35:05;;;;;;;36.22;23.15;;;;;;;10.82;100.00;101403.22;4975787;28;20030;-84
2023/05/11 00:37:30;;;;;;;33.05;22.05;;;;;;;10.83;100.00;101409.22;4975568;28;20530;-86
2023/05/11 00:39:55;;;;;;;36.25;25.13;;;;;;;10.81;100.00;101411.84;4975380;28;20114;-79
2023/05/11 00:42:21;;;;;;;34.05;24.20;;;;;;;10.80;100.00;101414.53;4975470;28;20097;-75
2023/05/11 00:44:46;;;;;;;36.58;24.98;;;;;;;10.67;100.00;101385.13;4975564;28;20157;-74
2023/05/11 00:47:12;;;;;;;36.22;24.92;;;;;;;10.87;100.00;101421.03;4975490;28;20031;-74
2023/05/11 00:49:38;;;;;;;35.13;24.10;;;;;;;10.89;100.00;101416.59;4975245;28;20027;-75
2023/05/11 00:52:04;;;;;;;40.15;26.58;;;;;;;10.73;100.00;101390.78;4975109;28;20106;-75
2023/05/11 00:54:30;;;;;;;38.92;25.98;;;;;;;10.79;100.00;101399.94;4975049;28;20039;-75
2023/05/11 00:56:56;;;;;;;36.63;25.75;;;;;;;10.95;100.00;101416.28;4975055;28;20023;-75
2023/05/11 00:59:22;;;;;;;37.72;26.25;;;;;;;10.95;100.00;101424.03;4974738;28;20497;-74
2023/05/11 01:01:48;;;;;;;41.72;26.75;;;;;;;10.99;100.00;101420.34;4975066;28;20063;-75
2023/05/11 01:04:14;;;;;;;39.60;26.55;;;;;;;10.83;100.00;101397.13;4975171;28;20411;-76
2023/05/11 01:07:03;;;;;;;38.65;26.27;;;;;;;11.04;100.00;101428.69;4974929;28;20023;-75
2023/05/11 01:09:37;;;;;;;43.72;27.67;;;;;;;11.05;100.00;101427.78;4974808;28;20036;-74
2023/05/11 01:12:27;;;;;;;40.95;26.60;;;;;;;11.05;100.00;101417.44;4974741;28;20038;-75
2023/05/11 01:15:12;;;;;;;43.45;28.63;;;;;;;11.04;100.00;101405.44;4958012;28;20031;-76
2023/05/11 01:17:50;;;;;;;38.85;28.20;;;;;;;11.06;100.00;101403.59;4974717;28;20046;-75
2023/05/11 01:20:20;;;;;;;40.45;29.05;;;;;;;11.03;100.00;101398.59;4974561;28;20062;-76
2023/05/11 01:23:01;;;;;;;41.70;29.30;;;;;;;11.17;100.00;101421.09;4974316;28;20082;-75
2023/05/11 01:25:31;;;;;;;41.70;28.30;;;;;;;11.09;100.00;101405.16;4974740;28;20026;-78
2023/05/11 01:28:03;;;;;;;46.30;30.08;;;;;;;11.18;100.00;101421.00;4974572;28;20019;-75
2023/05/11 01:30:34;;;;;;;;;;;;;;;11.22;100.00;101428.59;4975029;28;20530;-75
2023/05/11 01:33:08;;;;;;;43.53;29.95;;;;;;;11.18;100.00;101426.16;4974490;28;20345;-75
2023/05/11 01:35:38;;;;;;;40.58;29.25;;;;;;;11.17;100.00;101434.84;4974267;28;20026;-75
2023/05/11 01:38:06;;;;;;;41.75;30.63;;;;;;;11.03;100.00;101416.69;4974251;28;20493;-76
2023/05/11 01:40:34;;;;;;;49.40;31.33;;;;;;;11.19;100.00;101432.16;4974087;28;20055;-75
2023/05/11 01:43:03;;;;;;;45.50;30.77;;;;;;;11.09;100.00;101413.75;4974388;28;20030;-75
2023/05/11 01:45:34;;;;;;;46.30;30.60;;;;;;;11.19;100.00;101419.25;4974217;28;20030;-76
2023/05/11 01:48:03;;;;;;;48.15;32.10;;;;;;;11.09;100.00;101413.75;4974095;28;20030;-75
2023/05/11 01:50:31;;;;;;;51.25;32.05;;;;;;;11.23;100.00;101440.59;4974221;28;20542;-75
2023/05/11 01:52:57;;;;;;;47.67;32.08;;;;;;;11.16;100.00;101430.59;4973893;28;20041;-75
2023/05/11 01:55:24;;;;;;;46.78;31.10;;;;;;;11.12;100.00;101412.78;4973750;28;20093;-75
2023/05/11 01:57:51;;;;;;;46.70;29.83;;;;;;;11.23;100.00;101438.84;4974175;28;20031;-76
2023/05/11 02:00:17;;;;;;;43.70;28.75;;;;;;;11.23;100.00;101438.03;4974065;28;20057;-75
2023/05/11 02:02:46;;;;;;;42.72;30.05;;;;;;;11.19;100.00;101427.00;4973923;28;20420;-75
2023/05/11 02:05:18;;;;;;;46.10;29.15;;;;;;;11.06;100.00;101413.09;4956195;28;20023;-76
2023/05/11 02:07:45;;;;;;;41.63;28.67;;;;;;;11.18;100.00;101439.09;4973975;28;20031;-75
2023/05/11 02:10:11;;;;;;;45.08;28.45;;;;;;;11.06;100.00;101418.28;4973891;28;20102;-76
2023/05/11 02:12:38;;;;;;;45.17;29.42;;;;;;;11.03;100.00;101421.88;4973858;28;20551;-75
2023/05/11 02:15:05;;;;;;;41.78;27.73;;;;;;;11.06;100.00;101426.84;4973908;28;20025;-75
2023/05/11 02:17:32;;;;;;;42.28;28.35;;;;;;;11.12;100.00;101441.19;4973854;28;20027;-76
2023/05/11 02:20:00;;;;;;;44.58;30.35;;;;;;;11.12;100.00;101439.44;4973788;28;20061;-77
2023/05/11 02:22:27;;;;;;;46.22;30.27;;;;;;;11.07;100.00;101428.50;4973809;28;20062;-79
2023/05/11 02:24:52;;;;;;;40.22;29.20;;;;;;;11.07;100.00;101428.50;4973643;28;20038;-76
2023/05/11 02:27:18;;;;;;;43.30;27.30;;;;;;;11.04;100.00;101431.28;4973949;28;20023;-75
2023/05/11 02:29:43;;;;;;;41.20;27.98;;;;;;;10.93;100.00;101425.03;4973581;28;20114;-75
2023/05/11 02:32:14;;;;;;;40.53;26.38;;;;;;;10.80;100.00;101417.09;4973902;28;20027;-85
2023/05/11 02:34:43;;;;;;;37.70;26.50;;;;;;;10.81;100.00;101427.34;4973762;28;20486;-79
2023/05/11 02:37:11;;;;;;;37.40;26.50;;;;;;;10.53;100.00;101391.88;4973592;28;20185;-82
2023/05/11 02:39:39;;;;;;;34.50;25.73;;;;;;;10.59;100.00;101411.34;4973539;28;20364;-86
2023/05/11 02:42:18;;;;;;;33.92;23.63;;;;;;;10.65;100.00;101436.03;4973612;28;20023;-86
2023/05/11 02:44:52;;;;;;;35.58;25.13;;;;;;;10.47;100.00;101412.84;4955647;28;20138;-85
2023/05/11 02:47:20;;;;;;;37.38;24.50;;;;;;;10.46;100.00;101418.09;4974221;28;20030;-79
2023/05/11 02:49:52;;;;;;;34.28;24.02;;;;;;;10.21;100.00;101397.84;4974033;28;20031;-75
2023/05/11 02:52:20;;;;;;;33.28;23.50;;;;;;;10.25;100.00;101422.63;4973573;28;20031;-75
2023/05/11 02:54:47;;;;;;;33.53;23.75;;;;;;;10.19;100.00;101426.34;4973228;28;20394;-75
2023/05/11 02:57:13;;;;;;;29.98;21.08;;;;;;;9.96;100.00;101395.72;4973492;28;20513;-75
2023/05/11 02:59:38;;;;;;;29.75;21.15;;;;;;;10.07;100.00;101429.53;4973440;28;20031;-75
2023/05/11 03:02:04;;;;;;;31.60;19.85;;;;;;;10.02;100.00;101429.75;4973435;28;20070;-75
2023/05/11 03:04:30;;;;;;;32.30;22.75;;;;;;;9.92;100.00;101420.81;4973384;28;20035;-75
2023/05/11 03:06:55;;;;;;;34.50;22.05;;;;;;;9.92;100.00;101432.91;4973352;28;20023;-75
2023/05/11 03:09:21;;;;;;;32.42;19.80;;;;;;;9.87;100.00;101433.13;4973210;28;20034;-75
2023/05/11 03:11:46;;;;;;;24.58;18.75;;;;;;;9.83;100.00;101434.19;4973406;28;20019;-75
2023/05/11 03:14:12;;;;;;;29.83;21.48;;;;;;;9.80;100.00;101430.94;4973283;28;20081;-75
2023/05/11 03:16:39;;;;;;;29.75;21.27;;;;;;;9.67;100.00;101418.66;4974574;28;20026;-75
2023/05/11 03:19:06;;;;;;;33.17;21.02;;;;;;;9.48;100.00;101394.69;4976789;28;20103;-75
2023/05/11 03:21:33;;;;;;;33.00;22.65;;;;;;;9.67;100.00;101425.56;4976947;28;20157;-75
2023/05/11 03:23:59;;;;;;;32.83;22.30;;;;;;;9.74;100.00;101434.69;4976593;28;20391;-75
2023/05/11 03:26:27;;;;;;;33.30;22.77;;;;;;;9.66;100.00;101424.72;4976611;28;20473;-75
2023/05/11 03:28:54;;;;;;;34.60;22.58;;;;;;;9.71;100.00;101435.63;4976591;28;20034;-76
2023/05/11 03:31:19;;;;;;;47.78;22.50;;;;;;;9.72;100.00;101439.88;4976894;28;20023;-81
2023/05/11 03:33:45;;;;;;;31.60;21.55;;;;;;;9.71;100.00;101438.22;4976738;28;20031;-75
2023/05/11 03:36:12;;;;;;;33.80;22.75;;;;;;;9.56;100.00;101412.38;4976667;28;20386;-78
2023/05/11 03:38:38;;;;;;;37.42;22.23;;;;;;;9.72;100.00;101439.06;4976599;28;20023;-75
2023/05/11 03:41:04;;;;;;;34.90;23.20;;;;;;;9.64;100.00;101418.00;4976359;28;20019;-79
2023/05/11 03:43:33;;;;;;;36.80;24.38;;;;;;;9.74;100.00;101432.09;4965456;28;20386;-77
2023/05/11 03:46:01;;;;;;;30.65;22.10;;;;;;;9.80;100.00;101436.09;4956988;29;20034;-75
2023/05/11 03:48:27;;;;;;;38.38;25.13;;;;;;;9.84;100.00;101438.47;4957047;29;20031;-75
2023/05/11 03:50:53;;;;;;;37.92;25.75;;;;;;;9.92;100.00;101438.88;4957157;29;20110;-75
2023/05/11 03:53:19;;;;;;;39.28;25.00;;;;;;;9.97;100.00;101434.34;4957050;29;20024;-76
2023/05/11 03:55:44;;;;;;;41.42;27.20;;;;;;;10.02;100.00;101436.69;4956555;29;20518;-75
2023/05/11 03:58:10;;;;;;;41.78;27.48;;;;;;;9.79;100.00;101388.84;4956845;29;20070;-78
2023/05/11 04:00:41;;;;;;;42.13;26.67;;;;;;;10.08;100.00;101428.63;4956988;29;20034;-76
2023/05/11 04:03:08;;;;;;;39.90;25.58;;;;;;;10.03;100.00;101407.41;4957045;29;20498;-75
2023/05/11 04:05:34;;;;;;;41.83;26.70;;;;;;;10.13;100.00;101423.22;4956865;29;20418;-75
2023/05/11 04:08:00;;;;;;;41.75;26.30;;;;;;;10.02;100.00;101405.72;4956764;29;20111;-75
2023/05/11 04:10:26;;;;;;;38.67;26.02;;;;;;;10.22;100.00;101431.34;4956553;29;20050;-75
2023/05/11 04:12:52;;;;;;;44.58;28.13;;;;;;;10.32;100.00;101436.88;4956516;29;20039;-74
2023/05/11 04:15:17;;;;;;;46.83;28.85;;;;;;;10.36;100.00;101440.97;4956642;29;20024;-75
2023/05/11 04:17:43;;;;;;;45.03;27.50;;;;;;;10.39;100.00;101440.81;4956458;29;20087;-74
2023/05/11 04:20:08;;;;;;;41.78;26.83;;;;;;;10.42;100.00;101442.38;4956428;29;20159;-75
2023/05/11 04:22:34;;;;;;;41.40;26.88;;;;;;;10.45;100.00;101435.34;4956599;29;20027;-75
2023/05/11 04:24:59;;;;;;;40.92;26.70;;;;;;;10.48;100.00;101437.75;4956216;29;20434;-75
2023/05/11 04:27:25;;;;;;;39.10;26.42;;;;;;;10.46;100.00;101431.00;4955870;28;20031;-76
2023/05/11 04:29:50;;;;;;;39.88;26.00;;;;;;;10.43;100.00;101424.25;4956608;29;20122;-75
2023/05/11 04:32:15;;;;;;;41.15;27.65;;;;;;;10.51;100.00;101429.00;4956316;29;20534;-75
2023/05/11 04:34:41;;;;;;;40.67;25.90;;;;;;;10.52;100.00;101431.53;4956322;29;20043;-75
2023/05/11 04:37:06;;;;;;;38.13;25.35;;;;;;;10.57;100.00;101441.59;4956333;29;20101;-75
2023/05/11 04:39:33;;;;;;;37.35;25.40;;;;;;;10.57;100.00;101449.34;4956163;29;20387;-75
2023/05/11 04:41:59;;;;;;;37.95;25.70;;;;;;;10.46;100.00;101429.25;4955964;29;20026;-75
2023/05/11 04:44:25;;;;;;;38.50;27.50;;;;;;;10.63;100.00;101444.69;4955920;29;20023;-75
2023/05/11 04:46:54;;;;;;;44.28;28.40;;;;;;;10.53;100.00;101419.44;4956272;29;20091;-75
2023/05/11 04:49:19;;;;;;;47.53;29.83;;;;;;;10.74;100.00;101435.53;4956178;29;20088;-75
2023/05/11 04:51:45;;;;;;;41.95;28.55;;;;;;;10.86;100.00;101440.03;4955982;29;20027;-75
2023/05/11 04:54:10;;;;;;;47.85;30.13;;;;;;;10.86;100.00;101424.53;4955893;29;20055;-75
2023/05/11 04:56:39;;;;;;;47.08;30.58;;;;;;;11.09;100.00;101446.53;4955777;29;20054;-75
2023/05/11 04:59:05;;;;;;;44.83;29.30;;;;;;;11.14;100.00;101449.69;4955464;29;20031;-75
2023/05/11 05:01:31;;;;;;;50.15;32.13;;;;;;;11.20;100.00;101447.59;4956088;29;20039;-76
2023/05/11 05:03:56;;;;;;;47.30;32.40;;;;;;;11.07;100.00;101420.75;4955687;29;20419;-75
2023/05/11 05:06:21;;;;;;;48.00;31.63;;;;;;;11.15;100.00;101431.50;4955662;29;20498;-75
2023/05/11 05:08:47;;;;;;;44.13;30.63;;;;;;;11.37;100.00;101459.59;4955687;29;20032;-76
2023/05/11 05:11:12;;;;;;;49.50;31.13;;;;;;;11.14;100.00;101414.34;4955515;29;20019;-77
2023/05/11 05:13:37;;;;;;;52.17;34.55;;;;;;;11.27;100.00;101430.00;4955469;29;20034;-78
2023/05/11 05:16:03;;;;;;;48.42;33.92;;;;;;;11.39;100.00;101446.56;4955442;29;20082;-74
2023/05/11 05:18:28;;;;;;;51.75;34.08;;;;;;;11.52;100.00;101470.84;4955381;29;20106;-75
2023/05/11 05:20:53;;;;;;;57.85;36.25;;;;;;;11.56;100.00;101471.47;4955645;29;20038;-74
2023/05/11 05:23:19;;;;;;;56.35;36.60;;;;;;;11.58;100.00;101469.63;4955525;29;20059;-75
2023/05/11 05:25:44;;;;;;;58.88;35.97;;;;;;;11.62;100.00;101479.72;4938029;29;20031;-75
2023/05/11 05:28:10;;;;;;;51.40;34.05;;;;;;;11.64;100.00;101464.13;4955386;29;20031;-75
2023/05/11 05:30:36;;;;;;;51.00;34.35;;;;;;;11.66;100.00;101457.94;4955021;29;20046;-75
2023/05/11 05:33:01;;;;;;;53.30;35.05;;;;;;;11.93;100.00;101475.41;4955243;29;20051;-75
2023/05/11 05:35:26;;;;;;;49.08;34.13;;;;;;;11.93;100.00;101471.06;4955277;29;20058;-84
2023/05/11 05:37:52;;;;;;;46.03;34.08;;;;;;;12.04;100.00;101483.38;4955145;29;20027;-76
2023/05/11 05:40:17;;;;;;;45.38;31.80;;;;;;;12.11;100.00;101482.09;4954516;28;20118;-85
2023/05/11 05:42:42;;;;;;;48.45;32.38;;;;;;;12.16;100.00;101485.25;4954961;29;20034;-82
2023/05/11 05:45:09;;;;;;;47.03;32.92;;;;;;;12.22;100.00;101490.06;4954984;29;20066;-76
2023/05/11 05:47:34;;;;;;;48.22;32.55;;;;;;;12.25;100.00;101481.28;4954946;29;20028;-83
2023/05/11 05:49:59;;;;;;;48.47;32.47;;;;;;;12.30;100.00;101495.63;4954965;29;20174;-81
2023/05/11 05:52:25;;;;;;;47.45;32.90;;;;;;;12.26;100.00;101493.28;4958065;28;20038;-83
2023/05/11 05:54:50;;;;;;;46.95;31.92;;;;;;;12.11;100.00;101481.28;4974030;28;20057;-77
2023/05/11 05:57:15;;;;;;;48.03;35.40;;;;;;;12.14;100.00;101494.03;4973996;28;20027;-76
2023/05/11 05:59:41;;;;;;;50.67;34.85;;;;;;;12.19;100.00;101505.78;4974074;28;20410;-84
2023/05/11 06:02:07;;;;;;;55.55;36.03;;;;;;;12.11;100.00;101481.28;4973908;28;20031;-81
2023/05/11 06:04:32;;;;;;;54.63;38.00;;;;;;;12.32;100.00;101506.72;4974222;28;20057;-77
2023/05/11 06:06:58;;;;;;;54.85;36.17;;;;;;;12.35;100.00;101503.09;4974105;28;20059;-81
2023/05/11 06:09:24;;;;;;;62.20;41.63;;;;;;;12.30;100.00;101487.84;4971854;28;20042;-87
2023/05/11 06:11:49;;;;;;;58.72;37.90;;;;;;;12.33;100.00;101489.44;4973978;28;20507;-76
2023/05/11 06:14:15;;;;;;;62.72;39.25;;;;;;;12.49;100.00;101504.91;4973926;28;20467;-85
2023/05/11 06:16:40;;;;;;;62.72;39.55;;;;;;;12.55;100.00;101509.69;4973775;28;20038;-86
2023/05/11 06:19:07;;;;;;;67.45;40.38;;;;;;;12.58;100.00;101509.50;4973814;28;20050;-85
2023/05/11 06:21:32;;;;;;;64.40;41.15;;;;;;;12.56;100.00;101488.88;4973710;28;20483;-87
2023/05/11 06:23:57;;;;;;;65.72;40.58;;;;;;;12.75;100.00;101511.91;4973715;28;20062;-80
2023/05/11 06:26:23;;;;;;;64.47;40.75;;;;;;;12.81;100.00;101508.94;4973628;28;20026;-78
2023/05/11 06:28:50;;;;;;;65.28;43.08;;;;;;;12.59;100.00;101473.16;4973789;28;20038;-89
2023/05/11 06:31:15;;;;;;;70.07;42.15;;;;;;;12.51;100.00;101451.22;4973654;28;20030;-86
2023/05/11 06:33:41;;;;;;;67.88;40.72;;;;;;;12.83;100.00;101498.47;4947681;28;20681;-79
2023/05/11 06:36:06;;;;;;;70.80;43.35;;;;;;;12.94;100.00;101511.59;4936105;29;20107;-88
2023/05/11 06:38:32;;;;;;;75.10;44.50;;;;;;;13.13;100.00;101514.72;4917701;29;20432;-86
2023/05/11 06:40:57;;;;;;;74.70;44.45;;;;;;;13.28;100.00;101512.97;4935610;29;20064;-77
2023/05/11 06:43:22;;;;;;;76.60;44.15;;;;;;;13.47;100.00;101512.63;4935066;29;20451;-86
2023/05/11 06:45:49;;;;;;;71.35;44.53;;;;;;;13.17;100.00;101441.00;4935139;29;20023;-76
2023/05/11 06:48:14;;;;;;;75.65;43.65;;;;;;;13.47;100.00;101468.53;4934821;29;20032;-82
2023/05/11 06:50:40;;;;;;;66.25;43.25;;;;;;;13.86;100.00;101521.31;4919404;29;20090;-76
2023/05/11 06:53:05;;;;;;;76.90;45.90;;;;;;;13.68;100.00;101482.69;4938815;29;20032;-78
2023/05/11 06:55:31;;;;;;;65.95;42.83;;;;;;;13.97;100.00;101526.69;4938515;29;20066;-74
2023/05/11 06:57:56;;;;;;;67.25;42.45;;;;;;;14.05;100.00;101524.38;4938522;29;20032;-77
2023/05/11 07:00:22;;;;;;;65.03;42.90;;;;;;;13.99;100.00;101512.66;4938608;29;20098;-76
2023/05/11 07:02:47;;;;;;;70.13;44.25;;;;;;;14.21;100.00;101511.22;4938757;29;20099;-78
2023/05/11 07:05:12;;;;;;;70.70;42.47;;;;;;;14.30;100.00;101528.78;4938534;29;20028;-86
2023/05/11 07:07:38;;;;;;;67.82;41.95;;;;;;;14.26;100.00;101532.53;4938624;29;20038;-76
2023/05/11 07:10:07;;;;;;;65.63;44.00;;;;;;;14.15;100.00;101535.81;4938814;29;20034;-77
2023/05/11 07:12:32;;;;;;;70.32;44.15;;;;;;;14.13;100.00;101534.25;4921444;29;20079;-76
2023/05/11 07:14:58;;;;;;;70.97;46.10;;;;;;;14.12;100.00;101537.78;4938602;29;20483;-75
2023/05/11 07:17:23;;;;;;;67.57;44.70;;;;;;;14.01;100.00;101526.34;4938613;29;20019;-76
2023/05/11 07:19:51;;;;;;;65.22;43.88;;;;;;;14.00;100.00;101534.25;4938421;29;20042;-76
2023/05/11 07:22:16;;;;;;;71.65;44.40;;;;;;;13.98;100.00;101534.34;4938517;29;20055;-76
2023/05/11 07:24:42;;;;;;;66.85;43.05;;;;;;;14.04;100.00;101539.13;4938322;29;20483;-76
2023/05/11 07:27:07;;;;;;;67.75;44.50;;;;;;;13.99;100.00;101517.84;4938305;29;20038;-76
2023/05/11 07:29:32;;;;;;;63.85;43.17;;;;;;;14.12;100.00;101532.59;4938276;29;20031;-75
2023/05/11 07:31:58;;;;;;;62.03;42.35;;;;;;;14.21;100.00;101544.97;4938038;29;20083;-75
2023/05/11 07:34:23;;;;;;;65.90;43.17;;;;;;;14.06;100.00;101518.28;4938387;29;20034;-76
2023/05/11 07:36:49;;;;;;;66.55;42.72;;;;;;;14.17;100.00;101546.13;4936842;29;20047;-75
2023/05/11 07:39:15;;;;;;;64.22;45.22;;;;;;;13.97;100.00;101550.88;4938080;29;20031;-76
2023/05/11 07:41:41;;;;;;;65.82;42.08;;;;;;;13.62;100.00;101518.56;4938139;29;20027;-75
2023/05/11 07:44:06;;;;;;;65.40;43.92;;;;;;;13.40;100.00;101513.94;4937049;28;20114;-76
2023/05/11 07:46:32;;;;;;;65.45;42.50;;;;;;;13.44;100.00;101543.94;4920990;29;20023;-75
2023/05/11 07:48:57;;;;;;;65.10;42.58;;;;;;;13.31;100.00;101543.88;4937731;29;20444;-78
2023/05/11 07:51:22;;;;;;;64.10;43.25;;;;;;;13.05;100.00;101516.13;4938010;29;20027;-77
2023/05/11 07:53:47;;;;;;;61.33;41.45;;;;;;;13.18;100.00;101545.56;4937495;29;20035;-78
2023/05/11 07:56:13;;;;;;;63.28;43.03;;;;;;;12.97;100.00;101516.59;4937711;29;20102;-78
2023/05/11 07:58:38;;;;;;;65.80;45.00;;;;;;;12.99;100.00;101519.94;4935799;29;20043;-77
2023/05/11 08:01:04;;;;;;;59.97;40.95;;;;;;;12.93;100.00;101510.78;4937487;29;20439;-76
2023/05/11 08:03:29;;;;;;;63.13;42.45;;;;;;;12.89;100.00;101501.53;4936645;29;20079;-76
2023/05/11 08:05:55;;;;;;;63.50;42.95;;;;;;;13.16;100.00;101524.06;4920691;29;20028;-76
2023/05/11 08:08:20;;;;;;;62.50;40.33;;;;;;;13.32;100.00;101545.56;4937602;29;20063;-78
2023/05/11 08:10:45;;;;;;;63.28;41.05;;;;;;;13.34;100.00;101553.22;4937476;29;20036;-74
2023/05/11 08:13:11;;;;;;;57.60;40.65;;;;;;;13.26;100.00;101537.31;4937344;29;20064;-75
2023/05/11 08:15:36;;;;;;;59.38;39.38;;;;;;;13.33;100.00;101565.38;4937204;29;20043;-76
2023/05/11 08:18:01;;;;;;;63.03;40.65;;;;;;;13.35;100.00;101558.31;4937608;29;20027;-77
2023/05/11 08:20:27;;;;;;;58.80;38.92;;;;;;;13.31;100.00;101556.84;4937068;29;20063;-76
2023/05/11 08:22:52;;;;;;;62.13;40.30;;;;;;;13.17;100.00;101529.19;4937512;29;20027;-77
2023/05/11 08:25:18;;;;;;;58.10;39.92;;;;;;;13.39;100.00;101564.16;4937147;29;20464;-77
2023/05/11 08:27:43;;;;;;;56.78;38.80;;;;;;;13.49;100.00;101555.69;4936837;29;20111;-77
2023/05/11 08:30:09;;;;;;;56.47;38.17;;;;;;;13.36;100.00;101512.47;4937042;29;20498;-75
2023/05/11 08:32:35;;;;;;;54.35;38.08;;;;;;;13.72;100.00;101561.19;4937403;29;20094;-76
2023/05/11 08:35:02;;;;;;;55.35;36.03;;;;;;;13.82;100.00;101557.06;4945527;28;20456;-76
2023/05/11 08:37:28;;;;;;;52.60;36.08;;;;;;;13.70;100.00;101531.91;4956273;29;20094;-91
2023/05/11 08:39:54;;;;;;;52.35;35.80;;;;;;;13.90;100.00;101560.00;4956702;29;20024;-87
2023/05/11 08:42:23;;;;;;;48.42;35.13;;;;;;;13.91;100.00;101560.81;4954734;28;20479;-86
2023/05/11 08:44:49;;;;;;;51.15;34.88;;;;;;;13.60;100.00;101507.47;4955648;29;20026;-91
2023/05/11 08:47:16;;;;;;;52.10;33.72;;;;;;;13.74;100.00;101518.59;4956068;29;20038;-80
2023/05/11 08:49:41;;;;;;;50.28;33.42;;;;;;;13.99;100.00;101554.19;4956046;29;20053;-79
2023/05/11 08:52:08;;;;;;;45.03;31.92;;;;;;;14.13;100.00;101563.66;4956009;29;20540;-82
2023/05/11 08:54:33;;;;;;;41.92;30.63;;;;;;;14.17;100.00;101559.13;4955994;29;20047;-86
2023/05/11 08:57:00;;;;;;;45.28;31.45;;;;;;;14.20;100.00;101562.34;4955880;29;20023;-84
2023/05/11 08:59:27;;;;;;;45.45;30.65;;;;;;;14.29;100.00;101558.28;4955781;29;20053;-78
2023/05/11 09:01:54;;;;;;;44.03;31.02;;;;;;;14.34;100.00;101540.63;4955955;29;20102;-82
2023/05/11 09:04:21;;;;;;;46.28;30.15;;;;;;;14.59;100.00;101568.41;4955739;29;20451;-87
2023/05/11 09:06:48;;;;;;;40.15;27.88;;;;;;;14.62;100.00;101547.41;4955775;29;20031;-84
2023/05/11 09:09:15;;;;;;;40.55;29.63;;;;;;;14.61;100.00;101515.38;4956007;29;20530;-88
2023/05/11 09:11:41;;;;;;;39.95;29.10;;;;;;;15.00;100.00;101559.53;4955485;29;20023;-87
2023/05/11 09:14:06;;;;;;;41.75;29.23;;;;;;;15.13;100.00;101563.75;4950498;28;20042;-85
2023/05/11 09:16:31;;;;;;;43.75;31.13;;;;;;;15.30;100.00;101575.59;4936939;29;20085;-79
2023/05/11 09:19:00;;;;;;;49.72;32.97;;;;;;;15.30;100.00;101549.56;4936654;29;20031;-93
2023/05/11 09:21:26;;;;;;;50.97;32.65;;;;;;;15.24;100.00;101550.00;4936390;29;20479;-83
2023/05/11 09:23:55;;;;;;;55.90;34.88;;;;;;;15.11;100.00;101557.00;4936065;29;20038;-90
2023/05/11 09:26:23;;;;;;;55.03;33.78;;;;;;;15.06;100.00;101582.53;4936388;29;20027;-94
2023/05/11 09:28:54;;;;;;;51.90;35.53;;;;;;;15.11;100.00;101577.81;4936186;29;20450;-85
2023/05/11 09:31:46;;;;;;;56.78;37.10;;;;;;;15.19;100.00;101578.94;4935999;29;20028;-80
2023/05/11 09:34:18;;;;;;;;;;;;;;;15.51;100.00;101575.81;4932386;29;20047;-90
2023/05/11 09:36:45;;;;;;;57.88;36.35;;;;;;;15.66;100.00;101579.13;4936060;29;19957;-83
2023/05/11 09:39:12;;;;;;;57.30;35.85;;;;;;;15.65;99.33;101530.63;4935681;29;20032;-86
2023/05/11 09:41:37;;;;;;;53.58;35.85;;;;;;;16.08;99.64;101567.34;4935885;29;20063;-90
2023/05/11 09:44:13;;;;;;;51.08;33.28;;;;;;;16.16;97.99;101541.53;4935933;29;20050;-90
2023/05/11 09:46:43;;;;;;;53.13;35.83;;;;;;;16.51;97.50;101571.91;4935733;29;20028;-88
2023/05/11 09:49:10;;;;;;;50.20;34.30;;;;;;;16.72;96.21;101564.28;4935898;29;20042;-90
2023/05/11 09:51:37;;;;;;;53.45;34.97;;;;;;;16.85;94.77;101571.03;4935932;29;20066;-88
2023/05/11 09:54:17;;;;;;;52.25;35.00;;;;;;;16.84;95.45;101543.28;4935982;29;20028;-76
2023/05/11 09:56:51;;;;;;;51.88;34.83;;;;;;;17.06;94.14;101560.69;4936003;29;20094;-76
2023/05/11 09:59:36;;;;;;;51.65;33.42;;;;;;;16.80;92.51;101526.19;4935451;29;20492;-73
2023/05/11 10:02:17;;;;;;;49.40;32.85;;;;;;;17.30;91.65;101570.97;4939786;28;20073;-72
2023/05/11 10:04:42;;;;;;;45.83;31.98;;;;;;;17.08;88.38;101503.16;4954861;29;20030;-73
2023/05/11 10:07:08;;;;;;;44.42;30.63;;;;;;;17.58;88.11;101566.97;4954545;29;20027;-74
2023/05/11 10:09:34;;;;;;;51.38;33.60;;;;;;;17.82;86.89;101547.69;4954489;29;20027;-76
2023/05/11 10:12:01;;;;;;;48.10;32.97;;;;;;;17.90;84.53;101553.97;4954568;29;20099;-75
2023/05/11 10:14:28;;;;;;;51.45;34.00;;;;;;;18.08;86.26;101555.97;4954704;29;20027;-75
2023/05/11 10:16:56;;;;;;;54.55;34.10;;;;;;;18.17;85.36;101563.88;4954597;29;20086;-74
2023/05/11 10:19:22;;;;;;;53.78;34.35;;;;;;;18.05;84.74;101563.13;4954429;29;20118;-76
2023/05/11 10:21:48;;;;;;;59.83;37.25;;;;;;;17.89;83.14;101565.34;4954308;29;20106;-74
2023/05/11 10:24:14;;;;;;;54.95;36.60;;;;;;;17.80;84.13;101555.66;4937396;29;20043;-78
2023/05/11 10:26:41;;;;;;;51.72;36.20;;;;;;;17.58;83.17;101521.75;4960006;28;20033;-75
2023/05/11 10:29:08;;;;;;;53.60;35.92;;;;;;;17.63;86.17;101545.72;4943812;29;20419;-74
2023/05/11 10:31:34;;;;;;;53.33;35.50;;;;;;;17.55;84.72;101562.00;4960851;28;20034;-75
2023/05/11 10:34:00;;;;;;;53.80;35.65;;;;;;;17.09;84.74;101538.75;4960736;29;20589;-74
2023/05/11 10:36:27;;;;;;;50.97;34.00;;;;;;;16.81;86.57;101556.59;4960885;28;20031;-73
2023/05/11 10:38:52;;;;;;;53.50;36.17;;;;;;;16.41;87.73;101509.22;4960892;28;20110;-76
2023/05/11 10:41:35;;;;;;;52.42;34.95;;;;;;;16.77;87.18;101568.19;4960820;29;20138;-75
2023/05/11 10:44:01;;;;;;;49.88;35.47;;;;;;;16.86;88.13;101571.84;4960833;28;20031;-76
2023/05/11 10:46:59;;;;;;;54.08;35.60;;;;;;;16.87;86.59;101573.50;4960794;28;20059;-76
2023/05/11 10:49:39;;;;;;;45.50;32.83;;;;;;;17.27;86.54;101547.72;4960891;29;20122;-75
2023/05/11 10:52:27;;;;;;;46.95;32.05;;;;;;;17.51;85.37;101513.59;4942168;28;20042;-76
2023/05/11 10:55:17;;;;;;;51.25;32.25;;;;;;;18.16;84.07;101567.47;4960639;29;20078;-76
2023/05/11 10:58:06;;;;;;;48.60;32.28;;;;;;;18.68;83.08;101565.72;4960410;28;20019;-74
2023/05/11 11:01:02;;;;;;;45.75;30.88;;;;;;;18.83;81.00;101574.03;4960666;28;20039;-72
2023/05/11 11:03:28;;;;;;;44.03;29.58;;;;;;;18.90;76.56;101562.09;4960567;28;20035;-74
2023/05/11 11:05:53;;;;;;;43.15;29.08;;;;;;;19.14;74.40;101554.72;4960705;29;20035;-75